createdAt,value
2019-01-05T00:00:21.352Z,1023.16
2019-01-05T00:01:21.393Z,1023.14
2019-01-05T00:02:21.284Z,1023.18
2019-01-05T00:03:21.297Z,1023.12
2019-01-05T00:04:21.207Z,1023.17
2019-01-05T00:05:21.214Z,1023.15
2019-01-05T00:06:21.145Z,1023.17
2019-01-05T00:07:22.147Z,1023.16
2019-01-05T00:08:21.120Z,1023.11
2019-01-05T00:09:21.141Z,1023.10
2019-01-05T00:10:21.017Z,1023.06
2019-01-05T00:11:21.038Z,1023.00
2019-01-05T00:12:20.959Z,1023.04
2019-01-05T00:13:20.961Z,1023.00
2019-01-05T00:14:20.894Z,1023.05
2019-01-05T00:15:20.974Z,1023.03
2019-01-05T00:16:20.836Z,1023.00
2019-01-05T00:17:20.897Z,1022.97
2019-01-05T00:18:20.777Z,1022.93
2019-01-05T00:19:20.798Z,1022.91
2019-01-05T00:20:20.716Z,1022.93
2019-01-05T00:21:20.710Z,1022.89
2019-01-05T00:22:20.626Z,1022.94
2019-01-05T00:23:20.729Z,1022.94
2019-01-05T00:24:20.593Z,1022.95
2019-01-05T00:25:20.628Z,1022.96
2019-01-05T00:26:20.523Z,1022.91
2019-01-05T00:27:20.556Z,1022.87
2019-01-05T00:28:20.449Z,1022.82
2019-01-05T00:29:20.458Z,1022.88
2019-01-05T00:30:20.377Z,1022.77
2019-01-05T00:31:20.469Z,1022.81
2019-01-05T00:32:20.330Z,1022.81
2019-01-05T00:33:20.416Z,1022.83
2019-01-05T00:34:20.269Z,1022.85
2019-01-05T00:35:20.322Z,1022.79
2019-01-05T00:36:20.204Z,1022.83
2019-01-05T00:37:20.195Z,1022.82
2019-01-05T00:38:20.122Z,1022.79
2019-01-05T00:39:20.250Z,1022.80
2019-01-05T00:40:20.078Z,1022.76
2019-01-05T00:41:20.129Z,1022.77
2019-01-05T00:42:19.996Z,1022.83
2019-01-05T00:43:20.048Z,1022.83
2019-01-05T00:44:19.949Z,1022.80
2019-01-05T00:45:20.976Z,1022.80
2019-01-05T00:46:19.875Z,1022.82
2019-01-05T00:47:19.868Z,1022.77
2019-01-05T00:48:19.816Z,1022.76
2019-01-05T00:49:19.885Z,1022.76
2019-01-05T00:50:19.758Z,1022.75
2019-01-05T00:51:19.780Z,1022.73
2019-01-05T00:52:19.702Z,1022.72
2019-01-05T00:53:19.710Z,1022.68
2019-01-05T00:54:19.631Z,1022.70
2019-01-05T00:55:19.633Z,1022.66
2019-01-05T00:56:19.560Z,1022.67
2019-01-05T00:57:19.629Z,1022.65
2019-01-05T00:58:19.516Z,1022.63
2019-01-05T00:59:19.535Z,1022.62
2019-01-05T01:00:19.438Z,1022.58
2019-01-05T01:01:19.528Z,1022.58
2019-01-05T01:02:19.362Z,1022.61
2019-01-05T01:03:35.120Z,1022.61
2019-01-05T01:04:20.992Z,1022.58
2019-01-05T01:05:19.310Z,1022.55
2019-01-05T01:06:19.292Z,1022.59
2019-01-05T01:07:19.271Z,1022.59
2019-01-05T01:08:19.240Z,1022.61
2019-01-05T01:09:19.194Z,1022.62
2019-01-05T01:10:19.137Z,1022.61
2019-01-05T01:11:19.130Z,1022.59
2019-01-05T01:12:19.142Z,1022.60
2019-01-05T01:13:19.099Z,1022.59
2019-01-05T01:14:19.045Z,1022.56
2019-01-05T01:15:19.024Z,1022.54
2019-01-05T01:16:19.982Z,1022.54
2019-01-05T01:17:18.926Z,1022.51
2019-01-05T01:18:18.912Z,1022.52
2019-01-05T01:19:18.853Z,1022.56
2019-01-05T01:20:19.853Z,1022.57
2019-01-05T01:21:18.826Z,1022.60
2019-01-05T01:22:18.764Z,1022.52
2019-01-05T01:23:18.728Z,1022.55
2019-01-05T01:24:18.722Z,1022.55
2019-01-05T01:25:18.668Z,1022.64
2019-01-05T01:26:26.540Z,1022.60
2019-01-05T01:27:18.607Z,1022.53
2019-01-05T01:28:20.581Z,1022.54
2019-01-05T01:29:18.571Z,1022.45
2019-01-05T01:30:20.557Z,1022.48
2019-01-05T01:31:18.503Z,1022.47
2019-01-05T01:32:25.012Z,1022.40
2019-01-05T01:33:18.448Z,1022.38
2019-01-05T01:34:20.383Z,1022.34
2019-01-05T01:35:18.334Z,1022.37
2019-01-05T01:36:25.005Z,1022.27
2019-01-05T01:37:18.263Z,1022.33
2019-01-05T01:38:18.252Z,1022.28
2019-01-05T01:39:18.210Z,1022.28
2019-01-05T01:40:18.247Z,1022.29
2019-01-05T01:41:18.147Z,1022.29
2019-01-05T01:42:18.126Z,1022.24
2019-01-05T01:43:18.086Z,1022.23
2019-01-05T01:44:18.056Z,1022.20
2019-01-05T01:45:18.066Z,1022.26
2019-01-05T01:46:18.011Z,1022.24
2019-01-05T01:47:18.007Z,1022.23
2019-01-05T01:48:17.963Z,1022.28
2019-01-05T01:49:17.925Z,1022.23
2019-01-05T01:50:17.869Z,1022.23
2019-01-05T01:51:17.827Z,1022.21
2019-01-05T01:52:17.804Z,1022.26
2019-01-05T01:53:18.770Z,1022.19
2019-01-05T01:54:17.713Z,1022.17
2019-01-05T01:55:24.524Z,1022.07
2019-01-05T01:56:17.675Z,1022.08
2019-01-05T01:57:18.665Z,1022.07
2019-01-05T01:58:17.594Z,1022.04
2019-01-05T01:59:17.573Z,1022.07
2019-01-05T02:00:17.538Z,1022.07
2019-01-05T02:01:17.508Z,1022.03
2019-01-05T02:02:17.471Z,1022.00
2019-01-05T02:03:17.422Z,1021.96
2019-01-05T02:04:17.393Z,1021.91
2019-01-05T02:05:17.378Z,1021.93
2019-01-05T02:06:17.320Z,1021.90
2019-01-05T02:07:17.325Z,1021.89
2019-01-05T02:08:17.323Z,1021.88
2019-01-05T02:09:17.294Z,1021.88
2019-01-05T02:10:17.221Z,1021.86
2019-01-05T02:11:19.201Z,1021.87
2019-01-05T02:12:17.154Z,1021.90
2019-01-05T02:13:17.135Z,1021.81
2019-01-05T02:14:17.106Z,1021.79
2019-01-05T02:15:17.065Z,1021.75
2019-01-05T02:16:17.022Z,1021.72
2019-01-05T02:17:18.041Z,1021.71
2019-01-05T02:18:16.954Z,1021.74
2019-01-05T02:19:16.940Z,1021.71
2019-01-05T02:20:16.947Z,1021.77
2019-01-05T02:21:16.854Z,1021.73
2019-01-05T02:22:16.814Z,1021.74
2019-01-05T02:23:17.811Z,1021.76
2019-01-05T02:24:16.768Z,1021.81
2019-01-05T02:25:16.759Z,1021.79
2019-01-05T02:26:16.696Z,1021.84
2019-01-05T02:27:16.787Z,1021.86
2019-01-05T02:28:16.635Z,1021.80
2019-01-05T02:29:16.693Z,1021.85
2019-01-05T02:30:16.597Z,1021.82
2019-01-05T02:31:16.621Z,1021.79
2019-01-05T02:32:16.519Z,1021.83
2019-01-05T02:33:16.525Z,1021.76
2019-01-05T02:34:16.455Z,1021.73
2019-01-05T02:35:16.441Z,1021.66
2019-01-05T02:36:16.419Z,1021.64
2019-01-05T02:37:16.453Z,1021.57
2019-01-05T02:38:16.348Z,1021.58
2019-01-05T02:39:16.340Z,1021.53
2019-01-05T02:40:16.263Z,1021.55
2019-01-05T02:41:16.266Z,1021.60
2019-01-05T02:42:16.209Z,1021.58
2019-01-05T02:43:16.162Z,1021.49
2019-01-05T02:44:16.220Z,1021.53
2019-01-05T02:45:16.130Z,1021.52
2019-01-05T02:46:16.142Z,1021.40
2019-01-05T02:47:16.086Z,1021.47
2019-01-05T02:48:23.066Z,1021.45
2019-01-05T02:49:16.041Z,1021.46
2019-01-05T02:50:18.054Z,1021.48
2019-01-05T02:51:15.927Z,1021.49
2019-01-05T02:52:31.581Z,1021.44
2019-01-05T02:53:15.855Z,1021.39
2019-01-05T02:54:17.871Z,1021.45
2019-01-05T02:55:15.787Z,1021.38
2019-01-05T02:56:16.838Z,1021.47
2019-01-05T02:57:15.740Z,1021.43
2019-01-05T02:58:15.743Z,1021.49
2019-01-05T02:59:15.671Z,1021.38
2019-01-05T03:00:15.737Z,1021.46
2019-01-05T03:01:15.609Z,1021.56
2019-01-05T03:02:17.606Z,1021.54
2019-01-05T03:03:15.541Z,1021.52
2019-01-05T03:04:32.051Z,1021.52
2019-01-05T03:05:15.470Z,1021.50
2019-01-05T03:06:32.061Z,1021.48
2019-01-05T03:07:15.429Z,1021.45
2019-01-05T03:08:24.106Z,1021.38
2019-01-05T03:09:15.389Z,1021.42
2019-01-05T03:10:23.090Z,1021.43
2019-01-05T03:11:15.277Z,1021.46
2019-01-05T03:12:23.113Z,1021.42
2019-01-05T03:13:15.258Z,1021.43
2019-01-05T03:14:22.093Z,1021.37
2019-01-05T03:15:15.169Z,1021.40
2019-01-05T03:16:15.140Z,1021.39
2019-01-05T03:17:15.135Z,1021.32
2019-01-05T03:18:15.079Z,1021.32
2019-01-05T03:19:22.165Z,1021.32
2019-01-05T03:20:15.014Z,1021.28
2019-01-05T03:21:38.673Z,1021.20
2019-01-05T03:22:14.951Z,1021.27
2019-01-05T03:23:22.567Z,1021.20
2019-01-05T03:24:14.873Z,1021.23
2019-01-05T03:25:14.880Z,1021.22
2019-01-05T03:26:14.792Z,1021.23
2019-01-05T03:27:15.822Z,1021.10
2019-01-05T03:28:14.754Z,1021.14
2019-01-05T03:29:15.725Z,1021.08
2019-01-05T03:30:14.669Z,1021.07
2019-01-05T03:31:21.641Z,1021.05
2019-01-05T03:32:14.640Z,1021.02
2019-01-05T03:33:23.590Z,1021.03
2019-01-05T03:34:14.562Z,1021.04
2019-01-05T03:35:16.650Z,1021.04
2019-01-05T03:36:14.507Z,1021.06
2019-01-05T03:37:16.564Z,1021.06
2019-01-05T03:38:14.421Z,1021.14
2019-01-05T03:39:16.429Z,1021.07
2019-01-05T03:40:14.367Z,1021.11
2019-01-05T03:41:15.440Z,1021.07
2019-01-05T03:42:14.342Z,1021.08
2019-01-05T03:43:22.075Z,1021.06
2019-01-05T03:44:14.283Z,1021.00
2019-01-05T03:45:16.295Z,1021.00
2019-01-05T03:46:14.178Z,1020.93
2019-01-05T03:47:30.095Z,1020.95
2019-01-05T03:48:14.109Z,1020.89
2019-01-05T03:49:22.142Z,1020.90
2019-01-05T03:50:14.046Z,1020.85
2019-01-05T03:52:14.016Z,1020.76
2019-01-05T03:53:15.014Z,1020.83
2019-01-05T03:54:13.931Z,1020.86
2019-01-05T03:55:14.003Z,1020.79
2019-01-05T03:56:13.833Z,1020.84
2019-01-05T03:57:22.623Z,1020.79
2019-01-05T03:58:13.782Z,1020.71
2019-01-05T03:59:20.569Z,1020.68
2019-01-05T04:00:13.771Z,1020.65
2019-01-05T04:01:15.796Z,1020.64
2019-01-05T04:02:13.666Z,1020.66
2019-01-05T04:03:14.758Z,1020.67
2019-01-05T04:04:13.624Z,1020.67
2019-01-05T04:13:04.727Z,1020.62
2019-01-05T04:13:44.215Z,1020.63
2019-01-05T04:14:44.196Z,1020.60
2019-01-05T04:15:44.198Z,1020.59
2019-01-05T04:16:45.126Z,1020.59
2019-01-05T04:17:44.145Z,1020.55
2019-01-05T04:18:44.147Z,1020.60
2019-01-05T04:19:44.037Z,1020.52
2019-01-05T04:20:44.043Z,1020.49
2019-01-05T04:21:43.975Z,1020.43
2019-01-05T04:22:44.068Z,1020.40
2019-01-05T04:23:45.915Z,1020.34
2019-01-05T04:24:43.875Z,1020.34
2019-01-05T04:25:44.903Z,1020.36
2019-01-05T04:26:43.806Z,1020.33
2019-01-05T04:27:43.895Z,1020.36
2019-01-05T04:28:43.738Z,1020.37
2019-01-05T04:29:43.793Z,1020.37
2019-01-05T04:30:43.688Z,1020.36
2019-01-05T04:31:43.687Z,1020.30
2019-01-05T04:32:43.616Z,1020.29
2019-01-05T04:33:43.592Z,1020.32
2019-01-05T04:34:43.580Z,1020.36
2019-01-05T04:35:43.619Z,1020.34
2019-01-05T04:36:43.490Z,1020.35
2019-01-05T04:37:43.512Z,1020.28
2019-01-05T04:38:43.425Z,1020.31
2019-01-05T04:39:44.459Z,1020.29
2019-01-05T04:40:43.365Z,1020.27
2019-01-05T04:41:43.432Z,1020.29
2019-01-05T04:42:43.314Z,1020.22
2019-01-05T04:43:43.344Z,1020.26
2019-01-05T04:44:43.274Z,1020.28
2019-01-05T04:45:43.261Z,1020.22
2019-01-05T04:46:43.159Z,1020.19
2019-01-05T04:47:43.179Z,1020.18
2019-01-05T04:48:43.109Z,1020.15
2019-01-05T04:49:43.208Z,1020.12
2019-01-05T04:50:43.097Z,1020.18
2019-01-05T04:51:44.115Z,1020.14
2019-01-05T04:52:42.967Z,1020.11
2019-01-05T04:53:43.010Z,1020.11
2019-01-05T04:54:42.951Z,1020.15
2019-01-05T04:55:42.915Z,1020.08
2019-01-05T04:56:42.888Z,1020.09
2019-01-05T04:57:42.943Z,1020.13
2019-01-05T04:58:42.794Z,1020.10
2019-01-05T04:59:43.880Z,1020.12
2019-01-05T05:00:42.715Z,1020.09
2019-01-05T05:01:42.751Z,1020.10
2019-01-05T05:02:42.678Z,1020.11
2019-01-05T05:03:43.690Z,1020.08
2019-01-05T05:04:42.610Z,1020.13
2019-01-05T05:05:42.672Z,1020.10
2019-01-05T05:06:42.547Z,1020.09
2019-01-05T05:07:42.595Z,1020.08
2019-01-05T05:08:42.476Z,1019.99
2019-01-05T05:09:43.508Z,1019.97
2019-01-05T05:10:42.426Z,1019.93
2019-01-05T05:11:42.418Z,1019.98
2019-01-05T05:12:42.373Z,1019.90
2019-01-05T05:13:42.452Z,1019.92
2019-01-05T05:14:42.325Z,1019.95
2019-01-05T05:15:42.347Z,1019.92
2019-01-05T05:16:42.220Z,1019.91
2019-01-05T05:17:42.270Z,1019.89
2019-01-05T05:18:42.160Z,1019.96
2019-01-05T05:19:42.180Z,1019.94
2019-01-05T05:20:42.114Z,1019.94
2019-01-05T05:21:43.110Z,1019.87
2019-01-05T05:22:42.044Z,1019.92
2019-01-05T05:23:42.114Z,1019.93
2019-01-05T05:24:41.955Z,1019.94
2019-01-05T05:25:42.021Z,1019.94
2019-01-05T05:26:41.926Z,1019.94
2019-01-05T05:27:41.913Z,1019.88
2019-01-05T05:28:41.858Z,1019.91
2019-01-05T05:29:41.969Z,1019.95
2019-01-05T05:30:41.786Z,1020.01
2019-01-05T05:31:41.833Z,1019.93
2019-01-05T05:32:41.716Z,1019.93
2019-01-05T05:33:41.744Z,1019.93
2019-01-05T05:34:41.677Z,1019.96
2019-01-05T05:35:42.698Z,1019.97
2019-01-05T05:36:41.611Z,1019.97
2019-01-05T05:37:41.658Z,1019.96
2019-01-05T05:38:41.517Z,1019.98
2019-01-05T05:39:43.619Z,1019.96
2019-01-05T05:40:41.447Z,1019.97
2019-01-05T05:41:41.466Z,1019.99
2019-01-05T05:42:41.397Z,1019.94
2019-01-05T05:43:41.368Z,1019.94
2019-01-05T05:44:41.386Z,1019.93
2019-01-05T05:45:58.293Z,1019.89
2019-01-05T05:46:41.294Z,1019.87
2019-01-05T05:47:41.351Z,1019.98
2019-01-05T05:48:41.197Z,1019.86
2019-01-05T05:49:42.301Z,1019.84
2019-01-05T05:50:41.149Z,1019.91
2019-01-05T05:51:48.852Z,1019.87
2019-01-05T05:52:41.114Z,1019.90
2019-01-05T05:53:41.170Z,1019.81
2019-01-05T05:54:41.033Z,1019.79
2019-01-05T05:55:41.079Z,1019.84
2019-01-05T05:56:40.948Z,1019.83
2019-01-05T05:57:43.040Z,1019.80
2019-01-05T05:58:40.893Z,1019.80
2019-01-05T05:59:56.780Z,1019.77
2019-01-05T06:00:40.875Z,1019.78
2019-01-05T06:01:49.829Z,1019.75
2019-01-05T06:02:40.814Z,1019.71
2019-01-05T06:03:40.807Z,1019.76
2019-01-05T06:04:40.697Z,1019.75
2019-01-05T06:05:40.721Z,1019.70
2019-01-05T06:06:40.636Z,1019.71
2019-01-05T06:07:40.615Z,1019.71
2019-01-05T06:08:40.652Z,1019.73
2019-01-05T06:09:40.565Z,1019.75
2019-01-05T06:10:42.593Z,1019.76
2019-01-05T06:11:40.503Z,1019.76
2019-01-05T06:12:40.590Z,1019.84
2019-01-05T06:13:40.431Z,1019.78
2019-01-05T06:14:40.463Z,1019.84
2019-01-05T06:15:40.361Z,1019.82
2019-01-05T06:16:40.375Z,1019.88
2019-01-05T06:17:40.316Z,1019.92
2019-01-05T06:18:40.302Z,1019.93
2019-01-05T06:19:40.260Z,1019.91
2019-01-05T06:20:40.348Z,1019.92
2019-01-05T06:21:40.198Z,1019.90
2019-01-05T06:22:40.189Z,1019.99
2019-01-05T06:23:40.106Z,1019.94
2019-01-05T06:24:40.095Z,1019.89
2019-01-05T06:25:40.058Z,1019.91
2019-01-05T06:26:40.014Z,1019.94
2019-01-05T06:27:40.012Z,1019.90
2019-01-05T06:28:40.049Z,1019.90
2019-01-05T06:29:39.980Z,1019.86
2019-01-05T06:30:39.960Z,1019.94
2019-01-05T06:31:39.866Z,1019.92
2019-01-05T06:32:39.883Z,1019.94
2019-01-05T06:33:39.796Z,1019.95
2019-01-05T06:34:40.823Z,1019.93
2019-01-05T06:35:39.737Z,1019.91
2019-01-05T06:36:39.818Z,1019.95
2019-01-05T06:37:39.690Z,1020.01
2019-01-05T06:38:39.698Z,1019.95
2019-01-05T06:39:39.601Z,1019.92
2019-01-05T06:40:46.272Z,1019.96
2019-01-05T06:41:39.523Z,1019.93
2019-01-05T06:42:41.602Z,1019.93
2019-01-05T06:43:39.473Z,1020.00
2019-01-05T06:44:40.573Z,1019.99
2019-01-05T06:45:39.418Z,1020.07
2019-01-05T06:46:40.580Z,1020.04
2019-01-05T06:47:39.368Z,1019.98
2019-01-05T06:48:39.374Z,1020.02
2019-01-05T06:49:39.287Z,1020.05
2019-01-05T06:50:41.363Z,1020.03
2019-01-05T06:51:39.227Z,1019.99
2019-01-05T06:52:39.327Z,1020.07
2019-01-05T06:53:39.228Z,1020.07
2019-01-05T06:54:40.236Z,1020.12
2019-01-05T06:55:39.106Z,1020.15
2019-01-05T06:56:39.107Z,1020.07
2019-01-05T06:57:39.034Z,1020.10
2019-01-05T06:58:39.118Z,1020.11
2019-01-05T06:59:38.984Z,1020.13
2019-01-05T07:00:39.040Z,1020.10
2019-01-05T07:01:38.958Z,1020.18
2019-01-05T07:02:41.012Z,1020.18
2019-01-05T07:03:38.839Z,1020.16
2019-01-05T07:04:40.908Z,1020.30
2019-01-05T07:05:38.772Z,1020.21
2019-01-05T07:06:40.805Z,1020.20
2019-01-05T07:07:38.730Z,1020.22
2019-01-05T07:08:39.779Z,1020.20
2019-01-05T07:09:38.681Z,1020.15
2019-01-05T07:10:39.713Z,1020.17
2019-01-05T07:11:38.598Z,1020.19
2019-01-05T07:12:40.662Z,1020.20
2019-01-05T07:13:38.552Z,1020.18
2019-01-05T07:14:39.542Z,1020.19
2019-01-05T07:15:38.491Z,1020.24
2019-01-05T07:16:39.526Z,1020.21
2019-01-05T07:17:38.398Z,1020.26
2019-01-05T07:18:39.475Z,1020.30
2019-01-05T07:19:38.344Z,1020.25
2019-01-05T07:20:39.403Z,1020.28
2019-01-05T07:21:38.311Z,1020.34
2019-01-05T07:22:38.360Z,1020.27
2019-01-05T07:23:38.230Z,1020.38
2019-01-05T07:24:52.808Z,1020.30
2019-01-05T07:25:38.163Z,1020.36
2019-01-05T07:26:38.170Z,1020.32
2019-01-05T07:27:38.125Z,1020.33
2019-01-05T07:28:45.869Z,1020.33
2019-01-05T07:29:38.039Z,1020.31
2019-01-05T07:30:38.080Z,1020.33
2019-01-05T07:31:37.936Z,1020.43
2019-01-05T07:32:37.983Z,1020.37
2019-01-05T07:33:37.881Z,1020.37
2019-01-05T07:34:37.892Z,1020.43
2019-01-05T07:35:37.833Z,1020.43
2019-01-05T07:36:37.810Z,1020.45
2019-01-05T07:37:37.758Z,1020.41
2019-01-05T07:38:37.817Z,1020.50
2019-01-05T07:39:37.694Z,1020.52
2019-01-05T07:40:37.766Z,1020.47
2019-01-05T07:41:37.635Z,1020.49
2019-01-05T07:42:37.632Z,1020.48
2019-01-05T07:43:37.565Z,1020.45
2019-01-05T07:44:39.259Z,1020.58
2019-01-05T07:45:39.260Z,1020.56
2019-01-05T07:46:37.558Z,1020.64
2019-01-05T07:47:37.461Z,1020.54
2019-01-05T07:48:37.497Z,1020.62
2019-01-05T07:49:37.386Z,1020.61
2019-01-05T07:50:37.380Z,1020.63
2019-01-05T07:51:37.339Z,1020.67
2019-01-05T07:52:37.417Z,1020.65
2019-01-05T07:53:37.259Z,1020.49
2019-01-05T07:54:38.353Z,1020.68
2019-01-05T07:55:37.198Z,1020.74
2019-01-05T07:56:38.260Z,1020.71
2019-01-05T07:57:37.142Z,1020.71
2019-01-05T07:58:37.141Z,1020.71
2019-01-05T07:59:37.080Z,1020.72
2019-01-05T08:00:37.178Z,1020.71
2019-01-05T08:01:37.026Z,1020.77
2019-01-05T08:02:37.110Z,1020.72
2019-01-05T08:03:36.993Z,1020.70
2019-01-05T08:04:38.030Z,1020.62
2019-01-05T08:05:36.874Z,1020.67
2019-01-05T08:06:37.916Z,1020.73
2019-01-05T08:07:36.819Z,1020.67
2019-01-05T08:08:38.875Z,1020.78
2019-01-05T08:09:36.818Z,1020.70
2019-01-05T08:10:36.820Z,1020.66
2019-01-05T08:11:36.703Z,1020.63
2019-01-05T08:12:36.717Z,1020.62
2019-01-05T08:13:36.640Z,1020.63
2019-01-05T08:14:36.648Z,1020.70
2019-01-05T08:15:36.574Z,1020.70
2019-01-05T08:16:36.577Z,1020.74
2019-01-05T08:17:36.517Z,1020.73
2019-01-05T08:18:37.522Z,1020.71
2019-01-05T08:19:36.440Z,1020.73
2019-01-05T08:20:36.417Z,1020.80
2019-01-05T08:21:36.394Z,1020.75
2019-01-05T08:22:36.377Z,1020.76
2019-01-05T08:23:36.355Z,1020.79
2019-01-05T08:24:36.283Z,1020.72
2019-01-05T08:25:38.293Z,1020.82
2019-01-05T08:26:36.260Z,1020.78
2019-01-05T08:27:36.200Z,1020.73
2019-01-05T08:28:36.180Z,1020.66
2019-01-05T08:29:37.149Z,1020.71
2019-01-05T08:30:36.136Z,1020.73
2019-01-05T08:31:43.860Z,1020.62
2019-01-05T08:32:36.111Z,1020.63
2019-01-05T08:33:36.049Z,1020.78
2019-01-05T08:34:37.017Z,1020.78
2019-01-05T08:35:35.932Z,1020.70
2019-01-05T08:36:37.959Z,1020.70
2019-01-05T08:37:35.887Z,1020.71
2019-01-05T08:38:36.929Z,1020.71
2019-01-05T08:39:35.836Z,1020.81
2019-01-05T08:40:35.831Z,1020.74
2019-01-05T08:41:35.758Z,1020.76
2019-01-05T08:42:35.756Z,1020.73
2019-01-05T08:43:35.701Z,1020.69
2019-01-05T08:44:36.698Z,1020.73
2019-01-05T08:45:35.656Z,1020.72
2019-01-05T08:46:35.709Z,1020.75
2019-01-05T08:47:35.550Z,1020.76
2019-01-05T08:48:35.595Z,1020.83
2019-01-05T08:49:35.486Z,1020.79
2019-01-05T08:50:36.519Z,1020.73
2019-01-05T08:51:35.424Z,1020.80
2019-01-05T08:52:37.468Z,1020.81
2019-01-05T08:53:35.382Z,1020.75
2019-01-05T08:54:35.433Z,1020.79
2019-01-05T08:55:35.321Z,1020.68
2019-01-05T08:56:36.375Z,1020.73
2019-01-05T08:57:35.253Z,1020.79
2019-01-05T08:58:35.254Z,1020.73
2019-01-05T08:59:35.168Z,1020.77
2019-01-05T09:00:35.165Z,1020.79
2019-01-05T09:01:35.196Z,1020.81
2019-01-05T09:02:35.134Z,1020.72
2019-01-05T09:03:35.081Z,1020.70
2019-01-05T09:04:35.014Z,1020.71
2019-01-05T09:05:35.105Z,1020.76
2019-01-05T09:06:34.967Z,1020.70
2019-01-05T09:07:35.007Z,1020.70
2019-01-05T09:08:34.918Z,1020.77
2019-01-05T09:09:34.925Z,1020.76
2019-01-05T09:10:34.825Z,1020.75
2019-01-05T09:11:34.848Z,1020.72
2019-01-05T09:12:34.757Z,1020.74
2019-01-05T09:13:34.868Z,1020.76
2019-01-05T09:14:34.710Z,1020.66
2019-01-05T09:15:35.771Z,1020.72
2019-01-05T09:16:34.643Z,1020.70
2019-01-05T09:17:36.739Z,1020.62
2019-01-05T09:18:34.605Z,1020.78
2019-01-05T09:19:34.582Z,1020.72
2019-01-05T09:20:34.515Z,1020.78
2019-01-05T09:21:34.653Z,1020.79
2019-01-05T09:22:34.461Z,1020.73
2019-01-05T09:23:34.512Z,1020.83
2019-01-05T09:24:34.399Z,1020.82
2019-01-05T09:25:34.729Z,1020.75
2019-01-05T09:26:34.312Z,1020.82
2019-01-05T09:27:34.301Z,1020.74
2019-01-05T09:28:34.349Z,1020.85
2019-01-05T09:29:34.229Z,1020.72
2019-01-05T09:30:34.333Z,1020.76
2019-01-05T09:31:34.294Z,1020.78
2019-01-05T09:32:34.119Z,1020.78
2019-01-05T09:33:34.191Z,1020.78
2019-01-05T09:34:34.062Z,1020.78
2019-01-05T09:35:34.076Z,1020.81
2019-01-05T09:36:34.044Z,1020.78
2019-01-05T09:37:34.024Z,1020.79
2019-01-05T09:38:33.938Z,1020.81
2019-01-05T09:39:33.923Z,1020.80
2019-01-05T09:40:33.874Z,1020.79
2019-01-05T09:41:34.862Z,1020.89
2019-01-05T09:42:33.825Z,1020.85
2019-01-05T09:43:33.781Z,1020.84
2019-01-05T09:44:33.738Z,1020.81
2019-01-05T09:45:33.724Z,1020.91
2019-01-05T09:46:33.679Z,1020.86
2019-01-05T09:47:33.664Z,1020.87
2019-01-05T09:48:33.638Z,1020.87
2019-01-05T09:49:33.605Z,1020.84
2019-01-05T09:50:33.577Z,1020.86
2019-01-05T09:51:33.536Z,1020.86
2019-01-05T09:52:34.509Z,1020.87
2019-01-05T09:53:33.463Z,1020.86
2019-01-05T09:54:33.435Z,1020.85
2019-01-05T09:55:33.407Z,1020.89
2019-01-05T09:56:33.376Z,1020.88
2019-01-05T09:57:33.353Z,1020.86
2019-01-05T09:58:33.307Z,1020.89
2019-01-05T09:59:33.275Z,1020.84
2019-01-05T10:00:33.245Z,1020.87
2019-01-05T10:01:33.229Z,1020.87
2019-01-05T10:02:33.180Z,1020.84
2019-01-05T10:03:33.149Z,1020.91
2019-01-05T10:04:33.157Z,1020.84
2019-01-05T10:05:33.086Z,1020.84
2019-01-05T10:06:33.057Z,1020.88
2019-01-05T10:07:33.031Z,1020.78
2019-01-05T10:08:32.997Z,1020.82
2019-01-05T10:09:32.973Z,1020.80
2019-01-05T10:10:32.940Z,1020.86
2019-01-05T10:11:32.913Z,1020.85
2019-01-05T10:12:32.871Z,1020.83
2019-01-05T10:13:32.863Z,1020.91
2019-01-05T10:14:32.852Z,1020.85
2019-01-05T10:15:32.820Z,1020.87
2019-01-05T10:16:32.755Z,1020.84
2019-01-05T10:17:32.773Z,1020.88
2019-01-05T10:18:32.709Z,1020.86
2019-01-05T10:19:33.666Z,1020.86
2019-01-05T10:20:32.661Z,1020.81
2019-01-05T10:21:41.285Z,1020.83
2019-01-05T10:22:32.564Z,1020.85
2019-01-05T10:23:33.562Z,1020.82
2019-01-05T10:24:32.494Z,1020.85
2019-01-05T10:25:33.474Z,1020.84
2019-01-05T10:26:32.443Z,1020.84
2019-01-05T10:27:33.488Z,1020.83
2019-01-05T10:28:32.425Z,1020.79
2019-01-05T10:29:39.304Z,1020.83
2019-01-05T10:30:32.344Z,1020.79
2019-01-05T10:31:32.323Z,1020.85
2019-01-05T10:32:32.262Z,1020.84
2019-01-05T10:33:32.233Z,1020.85
2019-01-05T10:34:32.206Z,1020.78
2019-01-05T10:35:34.171Z,1020.78
2019-01-05T10:36:32.161Z,1020.79
2019-01-05T10:37:33.117Z,1020.79
2019-01-05T10:38:32.065Z,1020.81
2019-01-05T10:39:33.037Z,1020.75
2019-01-05T10:40:32.017Z,1020.74
2019-01-05T10:41:31.963Z,1020.74
2019-01-05T10:42:31.956Z,1020.76
2019-01-05T10:43:31.968Z,1020.73
2019-01-05T10:44:31.888Z,1020.83
2019-01-05T10:45:31.849Z,1020.70
2019-01-05T10:46:31.806Z,1020.70
2019-01-05T10:47:33.823Z,1020.69
2019-01-05T10:48:31.737Z,1020.65
2019-01-05T10:49:31.741Z,1020.67
2019-01-05T10:50:31.690Z,1020.65
2019-01-05T10:51:31.688Z,1020.66
2019-01-05T10:52:31.643Z,1020.58
2019-01-05T10:53:31.613Z,1020.61
2019-01-05T10:54:31.581Z,1020.57
2019-01-05T10:55:31.536Z,1020.59
2019-01-05T10:56:31.486Z,1020.58
2019-01-05T10:57:31.468Z,1020.58
2019-01-05T10:58:31.431Z,1020.57
2019-01-05T10:59:31.389Z,1020.58
2019-01-05T11:00:31.384Z,1020.57
2019-01-05T11:01:38.284Z,1020.53
2019-01-05T11:02:31.291Z,1020.57
2019-01-05T11:03:31.281Z,1020.54
2019-01-05T11:04:31.246Z,1020.51
2019-01-05T11:05:31.226Z,1020.52
2019-01-05T11:06:31.182Z,1020.52
2019-01-05T11:07:31.158Z,1020.53
2019-01-05T11:08:31.111Z,1020.41
2019-01-05T11:09:31.110Z,1020.39
2019-01-05T11:10:31.052Z,1020.49
2019-01-05T11:11:31.039Z,1020.43
2019-01-05T11:12:31.011Z,1020.42
2019-01-05T11:13:30.966Z,1020.44
2019-01-05T11:14:30.947Z,1020.46
2019-01-05T11:15:31.887Z,1020.45
2019-01-05T11:16:30.871Z,1020.47
2019-01-05T11:17:30.860Z,1020.48
2019-01-05T11:18:30.821Z,1020.51
2019-01-05T11:19:37.308Z,1020.45
2019-01-05T11:20:35.739Z,1020.47
2019-01-05T11:21:30.718Z,1020.49
2019-01-05T11:22:30.711Z,1020.45
2019-01-05T11:23:30.676Z,1020.39
2019-01-05T11:24:30.709Z,1020.39
2019-01-05T11:25:30.701Z,1020.36
2019-01-05T11:26:30.569Z,1020.38
2019-01-05T11:27:30.601Z,1020.33
2019-01-05T11:28:30.538Z,1020.26
2019-01-05T11:29:31.558Z,1020.32
2019-01-05T11:30:30.436Z,1020.33
2019-01-05T11:31:30.550Z,1020.35
2019-01-05T11:32:30.372Z,1020.32
2019-01-05T11:33:32.400Z,1020.36
2019-01-05T11:34:30.303Z,1020.33
2019-01-05T11:35:30.377Z,1020.35
2019-01-05T11:36:30.280Z,1020.27
2019-01-05T11:37:31.287Z,1020.28
2019-01-05T11:38:30.185Z,1020.24
2019-01-05T11:39:30.196Z,1020.23
2019-01-05T11:40:32.286Z,1020.24
2019-01-05T11:41:30.130Z,1020.26
2019-01-05T11:42:30.247Z,1020.23
2019-01-05T11:43:30.046Z,1020.26
2019-01-05T11:44:30.154Z,1020.28
2019-01-05T11:45:29.979Z,1020.24
2019-01-05T11:46:30.049Z,1020.28
2019-01-05T11:47:29.938Z,1020.31
2019-01-05T11:48:29.951Z,1020.28
2019-01-05T11:49:29.855Z,1020.29
2019-01-05T11:50:29.873Z,1020.26
2019-01-05T11:51:29.806Z,1020.23
2019-01-05T11:52:44.402Z,1020.24
2019-01-05T11:53:29.698Z,1020.18
2019-01-05T11:54:29.743Z,1020.19
2019-01-05T11:55:29.690Z,1020.19
2019-01-05T11:56:36.426Z,1020.24
2019-01-05T11:57:29.611Z,1020.21
2019-01-05T11:58:29.603Z,1020.23
2019-01-05T11:59:29.532Z,1020.20
2019-01-05T12:00:30.606Z,1020.21
2019-01-05T12:01:29.472Z,1020.18
2019-01-05T12:02:29.499Z,1020.21
2019-01-05T12:03:29.418Z,1020.21
2019-01-05T12:04:30.454Z,1020.16
2019-01-05T12:05:29.389Z,1020.20
2019-01-05T12:06:29.332Z,1020.15
2019-01-05T12:07:29.323Z,1020.17
2019-01-05T12:08:29.281Z,1020.19
2019-01-05T12:09:29.229Z,1020.21
2019-01-05T12:10:29.226Z,1020.13
2019-01-05T12:11:29.176Z,1020.21
2019-01-05T12:12:29.197Z,1020.21
2019-01-05T12:13:29.122Z,1020.13